createdAt,value
2022-08-19T00:01:56.962Z,7.18
2022-08-19T00:04:30.496Z,5.30
2022-08-19T00:06:58.898Z,4.00
2022-08-19T00:09:26.426Z,5.05
2022-08-19T00:11:56.378Z,3.80
2022-08-19T00:14:25.305Z,7.30
2022-08-19T00:16:55.396Z,6.93
2022-08-19T00:19:24.451Z,7.22
2022-08-19T00:21:52.229Z,6.10
2022-08-19T00:24:19.833Z,7.15
2022-08-19T00:26:46.967Z,7.75
2022-08-19T00:29:17.874Z,7.82
2022-08-19T00:31:45.267Z,10.35
2022-08-19T00:34:14.321Z,8.13
2022-08-19T00:36:42.433Z,5.97
2022-08-19T00:39:10.638Z,5.50
2022-08-19T00:41:38.051Z,4.50
2022-08-19T00:44:12.002Z,6.30
2022-08-19T00:46:44.032Z,6.85
2022-08-19T00:49:41.724Z,6.47
2022-08-19T00:52:15.454Z,5.43
2022-08-19T00:54:44.414Z,9.57
2022-08-19T00:57:15.719Z,4.60
2022-08-19T01:00:00.943Z,4.57
2022-08-19T01:02:32.011Z,7.03
2022-08-19T01:05:01.283Z,8.63
2022-08-19T01:07:28.173Z,5.80
2022-08-19T01:10:04.673Z,5.50
2022-08-19T01:12:31.937Z,6.05
2022-08-19T01:14:59.922Z,6.95
2022-08-19T01:17:26.864Z,8.20
2022-08-19T01:19:53.654Z,5.70
2022-08-19T01:22:33.730Z,7.63
2022-08-19T01:25:01.694Z,7.45
2022-08-19T01:27:43.795Z,6.45
2022-08-19T01:30:19.762Z,12.07
2022-08-19T01:32:46.639Z,8.88
2022-08-19T01:35:15.689Z,5.22
2022-08-19T01:37:56.660Z,5.82
2022-08-19T01:40:30.042Z,5.55
2022-08-19T01:42:56.930Z,5.65
2022-08-19T01:45:27.654Z,6.50
2022-08-19T01:48:02.122Z,5.95
2022-08-19T01:50:32.505Z,10.13
2022-08-19T01:53:05.929Z,8.43
2022-08-19T01:58:14.401Z,5.70
2022-08-19T02:00:41.673Z,4.80
2022-08-19T02:03:12.084Z,6.72
2022-08-19T02:05:40.109Z,6.57
2022-08-19T02:08:07.865Z,6.40
2022-08-19T02:10:34.998Z,5.13
2022-08-19T02:13:01.795Z,6.03
2022-08-19T02:15:28.613Z,6.63
2022-08-19T02:17:55.400Z,8.45
2022-08-19T02:20:23.401Z,6.68
2022-08-19T02:22:50.317Z,4.65
2022-08-19T02:25:17.255Z,8.48
2022-08-19T02:27:44.421Z,5.55
2022-08-19T02:30:17.732Z,7.50
2022-08-19T02:32:45.199Z,7.57
2022-08-19T02:35:14.582Z,6.20
2022-08-19T02:38:01.336Z,5.70
2022-08-19T02:40:30.744Z,5.82
2022-08-19T02:42:57.567Z,6.97
2022-08-19T02:45:24.449Z,5.65
2022-08-19T02:47:51.325Z,7.40
2022-08-19T02:50:18.597Z,6.45
2022-08-19T02:52:46.355Z,6.47
2022-08-19T02:55:13.154Z,7.05
2022-08-19T02:57:39.966Z,9.13
2022-08-19T03:00:09.843Z,7.72
2022-08-19T03:02:36.705Z,6.15
2022-08-19T03:05:05.552Z,7.18
2022-08-19T03:07:32.349Z,6.40
2022-08-19T03:09:59.525Z,6.05
2022-08-19T03:12:26.390Z,6.85
2022-08-19T03:14:53.698Z,7.93
2022-08-19T03:17:20.907Z,6.95
2022-08-19T03:19:47.741Z,6.85
2022-08-19T03:22:15.011Z,9.82
2022-08-19T03:24:41.839Z,6.65
2022-08-19T03:27:08.690Z,8.10
2022-08-19T03:29:43.139Z,6.55
2022-08-19T03:32:24.439Z,5.57
2022-08-19T03:34:58.540Z,7.82
2022-08-19T03:37:25.335Z,7.05
2022-08-19T03:39:52.845Z,6.60
2022-08-19T03:42:32.483Z,5.05
2022-08-19T03:45:00.239Z,7.82
2022-08-19T03:47:27.039Z,6.95
2022-08-19T03:49:53.858Z,8.57
2022-08-19T03:52:20.654Z,7.40
2022-08-19T03:54:47.442Z,9.50
2022-08-19T03:57:14.269Z,8.50
2022-08-19T03:59:41.197Z,5.20
2022-08-19T04:02:12.366Z,6.95
2022-08-19T04:04:42.043Z,8.73
2022-08-19T04:07:10.341Z,7.03
2022-08-19T04:09:37.805Z,5.25
2022-08-19T04:12:06.642Z,10.10
2022-08-19T04:14:34.820Z,5.75
2022-08-19T04:17:05.655Z,6.28
2022-08-19T04:19:35.156Z,7.57
2022-08-19T04:22:02.353Z,9.05
2022-08-19T04:24:29.224Z,6.65
2022-08-19T04:26:56.761Z,6.95
2022-08-19T04:29:26.335Z,6.97
2022-08-19T04:31:55.638Z,5.28
2022-08-19T04:34:26.151Z,10.27
2022-08-19T04:36:55.525Z,7.50
2022-08-19T04:39:48.493Z,7.10
2022-08-19T04:42:35.988Z,4.80
2022-08-19T04:45:05.411Z,6.25
2022-08-19T04:47:47.469Z,6.13
2022-08-19T04:50:23.490Z,6.18
2022-08-19T04:52:52.695Z,5.40
2022-08-19T04:55:19.693Z,8.10
2022-08-19T04:57:46.535Z,7.47
2022-08-19T05:00:13.872Z,5.60
2022-08-19T05:02:40.775Z,6.10
2022-08-19T05:05:08.310Z,8.40
2022-08-19T05:07:35.493Z,5.10
2022-08-19T05:10:04.251Z,8.10
2022-08-19T05:12:31.080Z,4.68
2022-08-19T05:14:59.066Z,6.60
2022-08-19T05:17:28.964Z,5.22
2022-08-19T05:20:16.799Z,7.63
2022-08-19T05:22:47.033Z,10.13
2022-08-19T05:25:21.631Z,7.13
2022-08-19T05:27:49.134Z,8.57
2022-08-19T05:30:17.198Z,11.13
2022-08-19T05:32:44.474Z,6.70
2022-08-19T05:35:12.573Z,6.38
2022-08-19T05:37:41.081Z,6.22
2022-08-19T05:40:09.542Z,6.80
2022-08-19T05:42:36.369Z,6.25
2022-08-19T05:45:03.997Z,8.00
2022-08-19T05:47:30.816Z,7.43
2022-08-19T05:49:57.650Z,5.72
2022-08-19T05:52:25.454Z,7.63
2022-08-19T05:54:55.645Z,7.68
2022-08-19T05:57:23.659Z,6.82
2022-08-19T05:59:57.631Z,8.73
2022-08-19T06:02:27.261Z,5.57
2022-08-19T06:04:54.160Z,6.97
2022-08-19T06:07:20.977Z,6.45
2022-08-19T06:09:59.728Z,7.97
2022-08-19T06:12:32.440Z,4.75
2022-08-19T06:15:01.103Z,7.05
2022-08-19T06:17:31.285Z,5.72
2022-08-19T06:19:59.454Z,8.40
2022-08-19T06:22:26.867Z,5.40
2022-08-19T06:24:54.798Z,5.35
2022-08-19T06:27:22.720Z,8.23
2022-08-19T06:29:50.092Z,5.45
2022-08-19T06:32:19.508Z,4.60
2022-08-19T06:34:46.817Z,6.15
2022-08-19T06:37:14.622Z,5.57
2022-08-19T06:39:45.650Z,11.93
2022-08-19T06:42:14.121Z,7.32
2022-08-19T06:44:43.803Z,6.13
2022-08-19T06:47:23.464Z,7.32
2022-08-19T06:49:54.894Z,6.82
2022-08-19T06:52:27.755Z,6.40
2022-08-19T06:54:57.062Z,9.57
2022-08-19T06:57:28.090Z,10.18
2022-08-19T06:59:56.450Z,7.90
2022-08-19T07:02:27.109Z,5.07
2022-08-19T07:04:54.459Z,7.22
2022-08-19T07:07:23.133Z,5.00
2022-08-19T07:09:58.545Z,7.20
2022-08-19T07:12:30.551Z,6.63
2022-08-19T07:14:59.011Z,5.55
2022-08-19T07:17:27.878Z,7.88
2022-08-19T07:19:54.925Z,6.43
2022-08-19T07:22:23.815Z,7.47
2022-08-19T07:24:54.057Z,6.95
2022-08-19T07:27:25.184Z,6.07
2022-08-19T07:29:57.282Z,5.97
2022-08-19T07:32:28.343Z,5.45
2022-08-19T07:34:56.635Z,7.97
2022-08-19T07:37:27.361Z,4.07
2022-08-19T07:39:56.403Z,5.20
2022-08-19T07:42:23.462Z,4.30
2022-08-19T07:44:50.993Z,3.97
2022-08-19T07:47:48.353Z,5.65
2022-08-19T07:50:12.046Z,6.85
2022-08-19T07:52:45.145Z,5.18
2022-08-19T07:55:41.105Z,5.38
2022-08-19T07:58:05.665Z,4.20
2022-08-19T08:00:32.484Z,5.50
2022-08-19T08:02:59.282Z,4.85
2022-08-19T08:05:44.900Z,5.30
2022-08-19T08:08:44.515Z,8.18
2022-08-19T08:11:17.668Z,5.55
2022-08-19T08:13:47.092Z,7.28
2022-08-19T08:16:32.072Z,5.97
2022-08-19T08:18:59.281Z,5.15
2022-08-19T08:21:26.216Z,4.35
2022-08-19T08:23:56.431Z,5.65
2022-08-19T08:26:23.816Z,5.40
2022-08-19T08:28:50.839Z,6.05
2022-08-19T08:31:19.515Z,5.85
2022-08-19T08:33:48.880Z,6.60
2022-08-19T08:36:16.353Z,6.22
2022-08-19T08:38:47.630Z,3.85
2022-08-19T08:41:53.604Z,3.10
2022-08-19T08:47:26.399Z,3.03
2022-08-19T08:50:00.682Z,5.00
2022-08-19T08:52:36.361Z,6.55
2022-08-19T08:55:12.527Z,3.85
2022-08-19T08:57:48.542Z,5.40
2022-08-19T09:00:27.472Z,4.57
2022-08-19T09:02:59.350Z,5.75
2022-08-19T09:06:04.287Z,6.20
2022-08-19T09:08:44.311Z,3.75
2022-08-19T09:11:47.189Z,3.72
2022-08-19T09:14:51.963Z,3.60
2022-08-19T09:17:28.364Z,4.57
2022-08-19T09:20:11.230Z,3.65
2022-08-19T09:22:40.491Z,3.17
2022-08-19T09:25:10.049Z,3.78
2022-08-19T09:27:43.691Z,4.05
2022-08-19T09:30:26.369Z,5.47
2022-08-19T09:32:54.083Z,5.78
2022-08-19T09:35:24.387Z,5.63
2022-08-19T09:37:57.600Z,5.32
2022-08-19T09:40:33.474Z,4.18
2022-08-19T09:43:09.860Z,6.38
2022-08-19T09:45:37.082Z,5.03
2022-08-19T09:48:04.314Z,4.68
2022-08-19T09:50:35.041Z,3.08
2022-08-19T09:53:01.853Z,4.07
2022-08-19T09:55:31.001Z,6.20
2022-08-19T09:58:01.203Z,3.35
2022-08-19T10:00:28.136Z,3.30
2022-08-19T10:02:54.913Z,3.15
2022-08-19T10:05:42.607Z,3.30
2022-08-19T10:08:13.534Z,4.00
2022-08-19T10:10:46.679Z,3.58
2022-08-19T10:13:16.693Z,3.55
2022-08-19T10:15:45.021Z,3.78
2022-08-19T10:18:14.882Z,3.55
2022-08-19T10:20:42.759Z,3.50
2022-08-19T10:23:10.451Z,4.07
2022-08-19T10:25:38.396Z,4.45
2022-08-19T10:28:10.614Z,3.72
2022-08-19T10:30:38.338Z,8.35
2022-08-19T10:33:08.674Z,4.45
2022-08-19T10:35:56.356Z,4.50
2022-08-19T10:38:31.528Z,5.03
2022-08-19T10:41:07.499Z,4.65
2022-08-19T10:43:37.715Z,3.80
2022-08-19T10:46:06.614Z,3.50
2022-08-19T10:48:42.598Z,3.28
2022-08-19T10:51:29.053Z,4.28
2022-08-19T10:53:56.644Z,3.65
2022-08-19T10:56:42.418Z,3.95
2022-08-19T10:59:09.804Z,4.13
2022-08-19T11:01:36.903Z,3.75
2022-08-19T11:04:05.356Z,3.83
2022-08-19T11:06:35.403Z,3.13
2022-08-19T11:09:02.250Z,3.67
2022-08-19T11:11:29.473Z,3.28
2022-08-19T11:13:56.764Z,3.70
2022-08-19T11:16:27.461Z,2.85
2022-08-19T11:18:59.295Z,3.22
2022-08-19T11:21:34.066Z,4.03
2022-08-19T11:24:05.039Z,3.40
2022-08-19T11:26:32.491Z,2.88
2022-08-19T11:29:00.770Z,3.15
2022-08-19T11:31:32.224Z,6.50
2022-08-19T11:34:02.443Z,3.78
2022-08-19T11:36:29.900Z,4.05
2022-08-19T11:38:56.768Z,2.30
2022-08-19T11:41:25.498Z,3.25
2022-08-19T11:43:56.008Z,5.20
2022-08-19T11:46:26.373Z,2.08
2022-08-19T11:48:53.471Z,3.03
2022-08-19T11:51:25.580Z,3.10
2022-08-19T11:53:53.993Z,1.90
2022-08-19T11:56:22.275Z,5.72
2022-08-19T11:58:49.430Z,2.78
2022-08-19T12:01:20.222Z,2.42
2022-08-19T12:03:49.739Z,3.92
2022-08-19T12:06:24.893Z,3.05
2022-08-19T12:08:51.690Z,2.38
2022-08-19T12:11:19.464Z,2.25
2022-08-19T12:13:47.099Z,2.00
2022-08-19T12:16:20.791Z,2.00
2022-08-19T12:18:48.278Z,4.80
2022-08-19T12:21:17.289Z,2.75
2022-08-19T12:23:46.274Z,3.20
2022-08-19T12:26:13.745Z,1.73
2022-08-19T12:28:40.739Z,3.35
2022-08-19T12:31:07.713Z,2.17
2022-08-19T12:33:34.946Z,4.32
2022-08-19T12:36:05.453Z,4.03
2022-08-19T12:38:33.324Z,4.05
2022-08-19T12:41:00.623Z,1.90
2022-08-19T12:43:28.354Z,1.70
2022-08-19T12:45:55.146Z,1.63
2022-08-19T12:48:32.941Z,2.25
2022-08-19T12:51:06.237Z,3.10
2022-08-19T12:53:33.035Z,1.55
2022-08-19T12:56:01.507Z,1.60
2022-08-19T12:58:29.856Z,1.50
2022-08-19T13:00:56.743Z,1.45
2022-08-19T13:03:29.814Z,2.75
2022-08-19T13:05:57.682Z,1.88
2022-08-19T13:08:24.768Z,1.60
2022-08-19T13:10:51.750Z,1.50
2022-08-19T13:13:18.594Z,2.60
2022-08-19T13:15:46.211Z,1.55
2022-08-19T13:18:15.349Z,1.40
2022-08-19T13:20:42.631Z,2.10
2022-08-19T13:23:19.478Z,1.95
2022-08-19T13:25:46.254Z,1.98
2022-08-19T13:28:14.970Z,2.00
2022-08-19T13:31:26.415Z,3.45
2022-08-19T13:33:53.224Z,3.45
2022-08-19T13:36:20.015Z,1.60
2022-08-19T13:38:46.833Z,2.72
2022-08-19T13:41:15.001Z,1.85
2022-08-19T13:43:42.292Z,6.78
2022-08-19T13:46:14.901Z,1.75
2022-08-19T13:48:42.913Z,2.00
2022-08-19T13:51:11.286Z,1.60
2022-08-19T13:53:40.285Z,1.55
2022-08-19T13:56:09.083Z,1.77
2022-08-19T13:58:36.099Z,1.42
2022-08-19T14:01:03.054Z,3.03
2022-08-19T14:03:29.990Z,2.05
2022-08-19T14:05:57.323Z,1.67
2022-08-19T14:08:25.201Z,2.40
2022-08-19T14:10:52.075Z,1.75
2022-08-19T14:13:22.711Z,2.35
2022-08-19T14:15:50.986Z,1.90
2022-08-19T14:18:19.377Z,1.50
2022-08-19T14:20:46.799Z,2.33
2022-08-19T14:23:14.620Z,1.75
2022-08-19T14:25:41.496Z,2.40
2022-08-19T14:28:08.653Z,1.50
2022-08-19T14:30:38.639Z,1.80
2022-08-19T14:33:06.636Z,1.63
2022-08-19T14:35:35.618Z,1.48
2022-08-19T14:38:07.172Z,2.78
2022-08-19T14:40:34.170Z,5.57
2022-08-19T14:43:05.336Z,2.65
2022-08-19T14:45:40.673Z,3.15
2022-08-19T14:48:19.045Z,1.20
2022-08-19T14:50:46.596Z,5.88
2022-08-19T14:53:13.514Z,1.45
2022-08-19T14:55:45.590Z,2.50
2022-08-19T14:58:29.754Z,1.30
2022-08-19T15:01:00.988Z,3.15
2022-08-19T15:03:29.020Z,1.88
2022-08-19T15:05:57.410Z,1.65
2022-08-19T15:08:25.833Z,4.50
2022-08-19T15:10:53.600Z,1.30
2022-08-19T15:13:20.409Z,5.00
2022-08-19T15:15:48.325Z,1.75
2022-08-19T15:18:15.622Z,1.50
2022-08-19T15:20:44.351Z,2.25
2022-08-19T15:23:18.217Z,3.55
2022-08-19T15:25:45.137Z,1.20
2022-08-19T15:28:12.774Z,1.63
2022-08-19T15:30:41.602Z,1.80
2022-08-19T15:33:08.821Z,1.45
2022-08-19T15:35:35.702Z,1.55
2022-08-19T15:38:02.543Z,1.45
2022-08-19T15:40:29.353Z,1.75
2022-08-19T15:42:57.265Z,1.20
2022-08-19T15:45:32.634Z,1.67
2022-08-19T15:48:04.531Z,4.72
2022-08-19T15:50:32.301Z,1.25
2022-08-19T15:53:07.332Z,1.77
2022-08-19T15:55:38.054Z,1.80
2022-08-19T15:58:31.867Z,1.33
2022-08-19T16:01:21.827Z,3.67
2022-08-19T16:04:14.805Z,1.50
2022-08-19T16:06:53.237Z,1.88
2022-08-19T16:09:27.496Z,1.95
2022-08-19T16:12:01.189Z,1.58
2022-08-19T16:14:30.539Z,1.10
2022-08-19T16:16:57.467Z,1.92
2022-08-19T16:19:25.204Z,1.55
2022-08-19T16:21:55.908Z,1.23
2022-08-19T16:24:26.462Z,4.75
2022-08-19T16:26:54.527Z,4.28
2022-08-19T16:29:34.490Z,3.30
2022-08-19T16:32:10.379Z,0.88
2022-08-19T16:34:40.017Z,1.52
2022-08-19T16:37:07.163Z,1.05
2022-08-19T16:39:34.072Z,1.08
2022-08-19T16:42:01.072Z,1.00
2022-08-19T16:44:29.914Z,1.30
2022-08-19T16:47:00.378Z,2.95
2022-08-19T16:49:54.473Z,1.83
2022-08-19T16:52:17.799Z,1.17
2022-08-19T16:54:44.952Z,1.60
2022-08-19T16:57:12.889Z,1.08
2022-08-19T16:59:42.505Z,2.05
2022-08-19T17:02:15.716Z,2.35
2022-08-19T17:04:42.497Z,2.20
2022-08-19T17:07:10.610Z,0.73
2022-08-19T17:09:37.989Z,0.80
2022-08-19T17:12:05.208Z,0.50
2022-08-19T17:14:32.003Z,1.17
2022-08-19T17:16:58.784Z,1.13
2022-08-19T17:19:25.682Z,2.03
2022-08-19T17:21:52.826Z,0.75
2022-08-19T17:24:19.963Z,0.85
2022-08-19T17:26:46.744Z,3.10
2022-08-19T17:29:14.119Z,1.38
2022-08-19T17:31:40.938Z,0.80
2022-08-19T17:34:09.238Z,2.28
2022-08-19T17:36:36.283Z,2.05
2022-08-19T17:39:05.207Z,5.03
2022-08-19T17:41:34.092Z,3.05
2022-08-19T17:44:02.391Z,2.28
2022-08-19T17:46:30.289Z,1.40
2022-08-19T17:48:58.273Z,5.00
2022-08-19T17:51:31.389Z,1.42
2022-08-19T17:53:59.201Z,1.33
2022-08-19T17:56:28.640Z,0.98
2022-08-19T17:58:59.872Z,1.02
2022-08-19T18:01:41.610Z,3.50
2022-08-19T18:04:18.760Z,1.75
2022-08-19T18:06:52.623Z,1.13
2022-08-19T18:09:23.792Z,1.00
2022-08-19T18:11:53.382Z,3.97
2022-08-19T18:14:28.099Z,20.58
2022-08-19T18:17:02.771Z,5.47
2022-08-19T18:19:30.215Z,3.50
2022-08-19T18:22:22.342Z,1.98
2022-08-19T18:24:49.201Z,3.60
2022-08-19T18:27:16.046Z,1.33
2022-08-19T18:29:43.357Z,1.20
2022-08-19T18:32:13.431Z,1.58
2022-08-19T18:34:42.248Z,3.67
2022-08-19T18:37:09.759Z,2.08
2022-08-19T18:39:55.645Z,4.80
2022-08-19T18:42:41.439Z,2.05
2022-08-19T18:45:28.149Z,3.05
2022-08-19T18:48:26.933Z,8.23
2022-08-19T18:50:59.533Z,2.67
2022-08-19T18:53:30.491Z,3.92
2022-08-19T18:55:58.563Z,3.83
2022-08-19T18:58:32.057Z,1.10
2022-08-19T19:01:13.611Z,3.22
2022-08-19T19:03:45.268Z,1.20
2022-08-19T19:06:15.382Z,2.30
2022-08-19T19:08:42.191Z,2.95
2022-08-19T19:11:09.265Z,1.33
2022-08-19T19:13:39.757Z,1.83
2022-08-19T19:16:11.391Z,1.92
2022-08-19T19:18:38.365Z,2.15
2022-08-19T19:21:06.213Z,7.65
2022-08-19T19:23:33.475Z,1.95
2022-08-19T19:26:00.794Z,2.35
2022-08-19T19:28:28.059Z,2.55
2022-08-19T19:31:00.047Z,3.00
2022-08-19T19:33:28.091Z,3.88
2022-08-19T19:35:54.889Z,4.50
2022-08-19T19:38:21.759Z,6.32
2022-08-19T19:40:48.894Z,4.65
2022-08-19T19:43:17.099Z,2.50
2022-08-19T19:45:44.609Z,3.63
2022-08-19T19:48:13.423Z,2.25
2022-08-19T19:50:40.399Z,3.28
2022-08-19T19:53:07.243Z,3.05
2022-08-19T19:55:34.073Z,1.88
2022-08-19T19:58:00.890Z,2.75
2022-08-19T20:00:28.818Z,4.82
2022-08-19T20:02:55.911Z,2.60
2022-08-19T20:05:23.914Z,2.20
2022-08-19T20:08:11.405Z,2.40
2022-08-19T20:10:39.753Z,2.70
2022-08-19T20:13:07.068Z,4.53
2022-08-19T20:15:35.434Z,2.85
2022-08-19T20:18:04.752Z,2.58
2022-08-19T20:20:32.127Z,3.38
2022-08-19T20:22:58.909Z,2.10
2022-08-19T20:25:25.764Z,4.55
2022-08-19T20:27:52.673Z,2.85
2022-08-19T20:30:23.149Z,3.03
2022-08-19T20:32:50.824Z,8.02
2022-08-19T20:35:20.992Z,2.30
2022-08-19T20:37:48.351Z,2.05
2022-08-19T20:40:16.473Z,2.28
2022-08-19T20:42:50.463Z,4.88
2022-08-19T20:45:33.060Z,2.47
2022-08-19T20:48:03.414Z,2.00
2022-08-19T20:50:33.034Z,5.70
2022-08-19T20:53:00.717Z,2.88
2022-08-19T20:55:28.798Z,3.20
2022-08-19T20:57:56.489Z,2.42
2022-08-19T21:00:23.479Z,3.20
2022-08-19T21:02:50.297Z,3.50
2022-08-19T21:05:17.165Z,2.85
2022-08-19T21:07:44.285Z,3.22
2022-08-19T21:10:11.180Z,3.92
2022-08-19T21:12:39.036Z,1.92
2022-08-19T21:15:07.121Z,2.72
2022-08-19T21:17:33.907Z,1.60
2022-08-19T21:20:00.689Z,3.70
2022-08-19T21:22:27.507Z,3.75
2022-08-19T21:24:54.309Z,1.88
2022-08-19T21:27:21.086Z,5.50
2022-08-19T21:29:49.021Z,3.80
2022-08-19T21:32:16.270Z,2.70
2022-08-19T21:34:46.348Z,2.38
2022-08-19T21:37:25.248Z,4.40
2022-08-19T21:39:56.022Z,3.47
2022-08-19T21:42:23.352Z,3.92
2022-08-19T21:44:50.143Z,4.03
2022-08-19T21:47:17.358Z,2.47
2022-08-19T21:49:44.186Z,3.05
2022-08-19T21:52:11.099Z,4.32
2022-08-19T21:54:38.658Z,2.35
2022-08-19T21:57:10.706Z,2.38
2022-08-19T21:59:44.065Z,2.10
2022-08-19T22:02:21.302Z,2.00
2022-08-19T22:04:50.750Z,2.50
2022-08-19T22:07:18.253Z,1.77
2022-08-19T22:09:47.582Z,6.30
2022-08-19T22:12:31.429Z,3.80
2022-08-19T22:14:59.941Z,4.40
2022-08-19T22:17:30.205Z,2.45
2022-08-19T22:19:58.398Z,2.20
2022-08-19T22:22:29.736Z,5.90
2022-08-19T22:25:09.191Z,6.40
2022-08-19T22:27:36.536Z,2.70
2022-08-19T22:30:08.265Z,2.08
2022-08-19T22:32:37.274Z,3.47
2022-08-19T22:35:08.204Z,2.17
2022-08-19T22:41:41.379Z,1.70
2022-08-19T22:44:11.205Z,1.95
2022-08-19T22:46:38.314Z,1.60
2022-08-19T22:49:05.140Z,4.13
2022-08-19T22:51:50.287Z,2.35
2022-08-19T22:54:17.612Z,2.10
2022-08-19T22:56:44.926Z,2.53
2022-08-19T22:59:12.161Z,2.45
2022-08-19T23:01:41.626Z,2.40
2022-08-19T23:04:08.434Z,6.88
2022-08-19T23:06:38.213Z,3.80
2022-08-19T23:09:10.265Z,1.70
2022-08-19T23:11:42.051Z,4.50
2022-08-19T23:14:11.244Z,2.60
2022-08-19T23:16:38.559Z,1.95
2022-08-19T23:19:07.140Z,4.13
2022-08-19T23:21:36.146Z,2.97
2022-08-19T23:24:03.315Z,3.63
2022-08-19T23:26:35.161Z,3.40
2022-08-19T23:29:21.486Z,3.67
2022-08-19T23:31:49.541Z,2.97
2022-08-19T23:34:16.538Z,2.45
2022-08-19T23:36:43.395Z,2.30
2022-08-19T23:39:10.225Z,4.53
2022-08-19T23:41:37.022Z,1.67
2022-08-19T23:44:04.113Z,3.72
2022-08-19T23:46:31.252Z,3.80
2022-08-19T23:49:08.994Z,2.22
2022-08-19T23:51:35.819Z,2.03
2022-08-19T23:54:02.629Z,2.10
2022-08-19T23:56:29.426Z,1.80
2022-08-19T23:58:56.224Z,3.30
